sensor_id;sensor_type;location;lat;lon;timestamp;P1;durP1;ratioP1;P2;durP2;ratioP2
52072;SDS011;38074;51.232;6.826;2022-12-17T00:01:29;4.57;;;3.33;;
52072;SDS011;38074;51.232;6.826;2022-12-17T00:09:04;3.92;;;2.85;;
52072;SDS011;38074;51.232;6.826;2022-12-17T00:16:38;4.88;;;3.33;;
52072;SDS011;38074;51.232;6.826;2022-12-17T00:24:13;5.05;;;3.45;;
52072;SDS011;38074;51.232;6.826;2022-12-17T00:31:47;4.95;;;3.45;;
52072;SDS011;38074;51.232;6.826;2022-12-17T00:39:21;5.78;;;3.97;;
52072;SDS011;38074;51.232;6.826;2022-12-17T00:46:55;5.65;;;3.60;;
52072;SDS011;38074;51.232;6.826;2022-12-17T00:54:29;5.03;;;3.13;;
52072;SDS011;38074;51.232;6.826;2022-12-17T01:02:03;4.70;;;3.10;;
52072;SDS011;38074;51.232;6.826;2022-12-17T01:09:37;4.55;;;3.03;;
52072;SDS011;38074;51.232;6.826;2022-12-17T01:17:11;5.03;;;3.50;;
52072;SDS011;38074;51.232;6.826;2022-12-17T01:24:45;4.28;;;2.90;;
52072;SDS011;38074;51.232;6.826;2022-12-17T01:32:19;4.20;;;2.78;;
52072;SDS011;38074;51.232;6.826;2022-12-17T01:39:53;5.40;;;3.25;;
52072;SDS011;38074;51.232;6.826;2022-12-17T01:47:29;5.88;;;3.88;;
52072;SDS011;38074;51.232;6.826;2022-12-17T01:55:07;5.88;;;3.58;;
52072;SDS011;38074;51.232;6.826;2022-12-17T02:02:41;4.75;;;3.22;;
52072;SDS011;38074;51.232;6.826;2022-12-17T02:10:23;5.68;;;4.07;;
52072;SDS011;38074;51.232;6.826;2022-12-17T02:18:20;5.28;;;3.42;;
52072;SDS011;38074;51.232;6.826;2022-12-17T02:26:01;4.70;;;3.05;;
52072;SDS011;38074;51.232;6.826;2022-12-17T02:33:53;4.47;;;3.10;;
52072;SDS011;38074;51.232;6.826;2022-12-17T02:41:39;6.15;;;3.60;;
52072;SDS011;38074;51.232;6.826;2022-12-17T02:49:17;4.83;;;3.57;;
52072;SDS011;38074;51.232;6.826;2022-12-17T02:56:51;4.30;;;3.33;;
52072;SDS011;38074;51.232;6.826;2022-12-17T03:04:25;4.32;;;2.90;;
52072;SDS011;38074;51.232;6.826;2022-12-17T03:11:59;4.47;;;3.17;;
52072;SDS011;38074;51.232;6.826;2022-12-17T03:19:33;5.63;;;3.80;;
52072;SDS011;38074;51.232;6.826;2022-12-17T03:27:07;4.22;;;2.92;;
52072;SDS011;38074;51.232;6.826;2022-12-17T03:34:41;4.88;;;3.47;;
52072;SDS011;38074;51.232;6.826;2022-12-17T03:42:15;4.72;;;3.05;;
52072;SDS011;38074;51.232;6.826;2022-12-17T03:49:49;5.03;;;3.47;;
52072;SDS011;38074;51.232;6.826;2022-12-17T03:57:23;4.32;;;3.40;;
52072;SDS011;38074;51.232;6.826;2022-12-17T04:04:57;4.85;;;3.50;;
52072;SDS011;38074;51.232;6.826;2022-12-17T04:12:31;5.20;;;3.30;;
52072;SDS011;38074;51.232;6.826;2022-12-17T04:20:05;5.60;;;3.80;;
52072;SDS011;38074;51.232;6.826;2022-12-17T04:27:39;5.30;;;3.35;;
52072;SDS011;38074;51.232;6.826;2022-12-17T04:35:13;5.47;;;3.88;;
52072;SDS011;38074;51.232;6.826;2022-12-17T04:42:48;5.20;;;3.38;;
52072;SDS011;38074;51.232;6.826;2022-12-17T04:50:22;4.38;;;3.22;;
52072;SDS011;38074;51.232;6.826;2022-12-17T04:58:00;5.72;;;3.70;;
52072;SDS011;38074;51.232;6.826;2022-12-17T05:05:38;5.03;;;3.45;;
52072;SDS011;38074;51.232;6.826;2022-12-17T05:13:12;5.43;;;3.80;;
52072;SDS011;38074;51.232;6.826;2022-12-17T05:20:46;4.00;;;3.00;;
52072;SDS011;38074;51.232;6.826;2022-12-17T05:28:20;5.68;;;3.78;;
52072;SDS011;38074;51.232;6.826;2022-12-17T05:35:57;4.30;;;3.10;;
52072;SDS011;38074;51.232;6.826;2022-12-17T05:43:34;4.00;;;2.78;;
52072;SDS011;38074;51.232;6.826;2022-12-17T05:51:08;4.28;;;3.08;;
52072;SDS011;38074;51.232;6.826;2022-12-17T05:58:42;3.55;;;2.70;;
52072;SDS011;38074;51.232;6.826;2022-12-17T06:06:16;3.88;;;3.00;;
52072;SDS011;38074;51.232;6.826;2022-12-17T06:13:51;4.63;;;2.97;;
52072;SDS011;38074;51.232;6.826;2022-12-17T06:21:25;3.95;;;2.75;;
52072;SDS011;38074;51.232;6.826;2022-12-17T06:29:00;4.63;;;3.30;;
52072;SDS011;38074;51.232;6.826;2022-12-17T06:36:34;5.35;;;3.42;;
52072;SDS011;38074;51.232;6.826;2022-12-17T06:44:07;4.72;;;3.30;;
52072;SDS011;38074;51.232;6.826;2022-12-17T06:51:42;4.45;;;3.08;;
52072;SDS011;38074;51.232;6.826;2022-12-17T06:59:16;4.50;;;3.33;;
52072;SDS011;38074;51.232;6.826;2022-12-17T07:06:50;3.88;;;3.10;;
52072;SDS011;38074;51.232;6.826;2022-12-17T07:14:24;4.75;;;3.25;;
52072;SDS011;38074;51.232;6.826;2022-12-17T07:21:58;4.80;;;3.38;;
52072;SDS011;38074;51.232;6.826;2022-12-17T07:29:32;4.32;;;2.65;;
52072;SDS011;38074;51.232;6.826;2022-12-17T07:37:06;5.00;;;3.13;;
52072;SDS011;38074;51.232;6.826;2022-12-17T07:44:40;4.18;;;2.78;;
52072;SDS011;38074;51.232;6.826;2022-12-17T07:52:14;3.50;;;2.63;;
52072;SDS011;38074;51.232;6.826;2022-12-17T07:59:48;3.83;;;2.60;;
52072;SDS011;38074;51.232;6.826;2022-12-17T08:07:21;3.72;;;2.50;;
52072;SDS011;38074;51.232;6.826;2022-12-17T08:14:55;5.93;;;3.22;;
52072;SDS011;38074;51.232;6.826;2022-12-17T08:22:30;6.22;;;2.85;;
52072;SDS011;38074;51.232;6.826;2022-12-17T08:30:04;6.95;;;3.00;;
52072;SDS011;38074;51.232;6.826;2022-12-17T08:37:39;8.35;;;3.33;;
52072;SDS011;38074;51.232;6.826;2022-12-17T08:45:13;5.93;;;2.70;;
52072;SDS011;38074;51.232;6.826;2022-12-17T08:52:47;5.35;;;2.55;;
52072;SDS011;38074;51.232;6.826;2022-12-17T09:00:21;5.07;;;2.28;;
52072;SDS011;38074;51.232;6.826;2022-12-17T09:08:01;5.15;;;3.13;;
52072;SDS011;38074;51.232;6.826;2022-12-17T09:15:37;5.25;;;2.50;;
52072;SDS011;38074;51.232;6.826;2022-12-17T09:23:15;4.43;;;2.60;;
52072;SDS011;38074;51.232;6.826;2022-12-17T09:30:50;5.72;;;2.55;;
52072;SDS011;38074;51.232;6.826;2022-12-17T09:38:24;4.40;;;2.50;;
52072;SDS011;38074;51.232;6.826;2022-12-17T09:46:04;4.72;;;2.58;;
52072;SDS011;38074;51.232;6.826;2022-12-17T09:53:48;3.35;;;1.95;;
52072;SDS011;38074;51.232;6.826;2022-12-17T10:01:24;4.88;;;2.97;;
52072;SDS011;38074;51.232;6.826;2022-12-17T10:09:15;3.95;;;2.50;;
52072;SDS011;38074;51.232;6.826;2022-12-17T10:16:58;3.03;;;1.90;;
52072;SDS011;38074;51.232;6.826;2022-12-17T10:24:42;6.65;;;2.55;;
52072;SDS011;38074;51.232;6.826;2022-12-17T10:47:32;5.97;;;3.25;;
52072;SDS011;38074;51.232;6.826;2022-12-17T10:55:17;6.18;;;3.08;;
52072;SDS011;38074;51.232;6.826;2022-12-17T11:02:53;6.07;;;2.83;;
52072;SDS011;38074;51.232;6.826;2022-12-17T11:10:28;8.18;;;3.55;;
52072;SDS011;38074;51.232;6.826;2022-12-17T11:18:05;6.20;;;2.70;;
52072;SDS011;38074;51.232;6.826;2022-12-17T11:33:36;6.80;;;3.33;;
52072;SDS011;38074;51.232;6.826;2022-12-17T11:57:13;7.63;;;3.45;;
52072;SDS011;38074;51.232;6.826;2022-12-17T12:29:18;6.43;;;3.58;;
52072;SDS011;38074;51.232;6.826;2022-12-17T12:37:04;7.30;;;3.50;;
52072;SDS011;38074;51.232;6.826;2022-12-17T12:52:36;5.10;;;2.88;;
52072;SDS011;38074;51.232;6.826;2022-12-17T13:01:11;5.38;;;2.85;;
52072;SDS011;38074;51.232;6.826;2022-12-17T13:08:22;5.07;;;2.75;;
52072;SDS011;38074;51.232;6.826;2022-12-17T13:15:40;5.13;;;2.65;;
52072;SDS011;38074;51.232;6.826;2022-12-17T13:23:27;3.50;;;2.33;;
52072;SDS011;38074;51.232;6.826;2022-12-17T13:30:44;3.42;;;2.33;;
52072;SDS011;38074;51.232;6.826;2022-12-17T13:45:36;8.93;;;3.47;;
52072;SDS011;38074;51.232;6.826;2022-12-17T13:52:53;6.80;;;3.58;;
52072;SDS011;38074;51.232;6.826;2022-12-17T14:00:09;7.30;;;3.40;;
52072;SDS011;38074;51.232;6.826;2022-12-17T14:07:39;7.82;;;3.50;;
52072;SDS011;38074;51.232;6.826;2022-12-17T14:14:58;8.00;;;2.90;;
52072;SDS011;38074;51.232;6.826;2022-12-17T14:22:19;4.95;;;2.97;;
52072;SDS011;38074;51.232;6.826;2022-12-17T14:29:46;6.30;;;3.15;;
52072;SDS011;38074;51.232;6.826;2022-12-17T14:37:01;6.87;;;3.70;;
52072;SDS011;38074;51.232;6.826;2022-12-17T14:44:18;5.38;;;3.13;;
52072;SDS011;38074;51.232;6.826;2022-12-17T14:51:40;6.13;;;3.17;;
52072;SDS011;38074;51.232;6.826;2022-12-17T14:58:56;5.55;;;2.95;;
52072;SDS011;38074;51.232;6.826;2022-12-17T15:06:12;6.47;;;3.23;;
52072;SDS011;38074;51.232;6.826;2022-12-17T15:13:31;5.30;;;2.55;;
52072;SDS011;38074;51.232;6.826;2022-12-17T15:20:46;5.97;;;3.15;;
52072;SDS011;38074;51.232;6.826;2022-12-17T15:28:02;5.38;;;2.80;;
52072;SDS011;38074;51.232;6.826;2022-12-17T15:35:18;4.72;;;3.25;;
52072;SDS011;38074;51.232;6.826;2022-12-17T15:42:33;4.30;;;3.00;;
52072;SDS011;38074;51.232;6.826;2022-12-17T15:50:08;5.15;;;3.63;;
52072;SDS011;38074;51.232;6.826;2022-12-17T15:57:24;4.32;;;3.05;;
52072;SDS011;38074;51.232;6.826;2022-12-17T16:04:39;6.63;;;3.83;;
52072;SDS011;38074;51.232;6.826;2022-12-17T16:11:55;6.82;;;4.28;;
52072;SDS011;38074;51.232;6.826;2022-12-17T16:19:11;5.13;;;3.28;;
52072;SDS011;38074;51.232;6.826;2022-12-17T16:26:26;5.10;;;3.83;;
52072;SDS011;38074;51.232;6.826;2022-12-17T16:33:42;5.60;;;3.37;;
52072;SDS011;38074;51.232;6.826;2022-12-17T16:41:00;4.57;;;3.60;;
52072;SDS011;38074;51.232;6.826;2022-12-17T16:48:17;5.53;;;3.63;;
52072;SDS011;38074;51.232;6.826;2022-12-17T16:55:38;5.90;;;4.17;;
52072;SDS011;38074;51.232;6.826;2022-12-17T17:02:55;8.23;;;5.68;;
52072;SDS011;38074;51.232;6.826;2022-12-17T17:10:10;5.90;;;4.70;;
52072;SDS011;38074;51.232;6.826;2022-12-17T17:17:26;6.50;;;4.38;;
52072;SDS011;38074;51.232;6.826;2022-12-17T17:24:42;6.63;;;4.27;;
52072;SDS011;38074;51.232;6.826;2022-12-17T17:31:57;7.43;;;4.93;;
52072;SDS011;38074;51.232;6.826;2022-12-17T17:39:13;6.23;;;4.40;;
52072;SDS011;38074;51.232;6.826;2022-12-17T17:46:28;5.27;;;4.10;;
52072;SDS011;38074;51.232;6.826;2022-12-17T17:53:45;5.90;;;4.50;;
52072;SDS011;38074;51.232;6.826;2022-12-17T18:08:32;6.50;;;4.18;;
52072;SDS011;38074;51.232;6.826;2022-12-17T18:15:49;6.63;;;3.93;;
52072;SDS011;38074;51.232;6.826;2022-12-17T18:23:04;6.50;;;4.37;;
52072;SDS011;38074;51.232;6.826;2022-12-17T18:30:20;5.00;;;3.57;;
52072;SDS011;38074;51.232;6.826;2022-12-17T18:37:35;5.43;;;4.03;;
52072;SDS011;38074;51.232;6.826;2022-12-17T18:44:51;4.35;;;3.55;;
52072;SDS011;38074;51.232;6.826;2022-12-17T18:52:07;6.70;;;4.37;;
52072;SDS011;38074;51.232;6.826;2022-12-17T18:59:24;7.17;;;4.80;;
52072;SDS011;38074;51.232;6.826;2022-12-17T19:06:42;5.80;;;4.13;;
52072;SDS011;38074;51.232;6.826;2022-12-17T19:13:58;7.07;;;4.80;;
52072;SDS011;38074;51.232;6.826;2022-12-17T19:21:14;6.38;;;4.07;;
52072;SDS011;38074;51.232;6.826;2022-12-17T19:28:30;5.23;;;4.20;;
52072;SDS011;38074;51.232;6.826;2022-12-17T19:35:46;11.50;;;4.22;;
52072;SDS011;38074;51.232;6.826;2022-12-17T19:43:01;9.27;;;4.20;;
52072;SDS011;38074;51.232;6.826;2022-12-17T19:50:17;6.43;;;4.20;;
52072;SDS011;38074;51.232;6.826;2022-12-17T19:57:33;6.60;;;4.57;;
52072;SDS011;38074;51.232;6.826;2022-12-17T20:04:48;8.10;;;4.55;;
52072;SDS011;38074;51.232;6.826;2022-12-17T20:12:05;6.32;;;4.63;;
52072;SDS011;38074;51.232;6.826;2022-12-17T20:19:27;6.75;;;4.97;;
52072;SDS011;38074;51.232;6.826;2022-12-17T20:26:45;8.07;;;5.35;;
52072;SDS011;38074;51.232;6.826;2022-12-17T20:41:20;11.63;;;5.35;;
52072;SDS011;38074;51.232;6.826;2022-12-17T20:48:37;34.42;;;7.22;;
52072;SDS011;38074;51.232;6.826;2022-12-17T20:55:58;34.50;;;8.50;;
52072;SDS011;38074;51.232;6.826;2022-12-17T21:03:15;30.90;;;8.00;;
52072;SDS011;38074;51.232;6.826;2022-12-17T21:10:30;43.87;;;11.03;;
52072;SDS011;38074;51.232;6.826;2022-12-17T21:17:46;28.55;;;12.50;;
52072;SDS011;38074;51.232;6.826;2022-12-17T21:25:02;25.23;;;11.80;;
52072;SDS011;38074;51.232;6.826;2022-12-17T21:32:18;15.57;;;10.27;;
52072;SDS011;38074;51.232;6.826;2022-12-17T21:39:35;14.93;;;9.53;;
52072;SDS011;38074;51.232;6.826;2022-12-17T21:46:50;16.08;;;9.80;;
52072;SDS011;38074;51.232;6.826;2022-12-17T21:54:06;17.60;;;9.27;;
52072;SDS011;38074;51.232;6.826;2022-12-17T22:01:23;11.97;;;8.60;;
52072;SDS011;38074;51.232;6.826;2022-12-17T22:08:40;12.90;;;8.75;;
52072;SDS011;38074;51.232;6.826;2022-12-17T22:15:57;11.20;;;8.15;;
52072;SDS011;38074;51.232;6.826;2022-12-17T22:23:12;10.55;;;7.95;;
52072;SDS011;38074;51.232;6.826;2022-12-17T22:30:30;9.98;;;7.35;;
52072;SDS011;38074;51.232;6.826;2022-12-17T22:38:05;8.73;;;6.40;;
52072;SDS011;38074;51.232;6.826;2022-12-17T22:45:20;9.98;;;5.53;;
52072;SDS011;38074;51.232;6.826;2022-12-17T22:52:36;9.93;;;5.57;;
52072;SDS011;38074;51.232;6.826;2022-12-17T22:59:52;8.25;;;5.15;;
52072;SDS011;38074;51.232;6.826;2022-12-17T23:07:07;7.40;;;5.30;;
52072;SDS011;38074;51.232;6.826;2022-12-17T23:14:23;6.23;;;4.43;;
52072;SDS011;38074;51.232;6.826;2022-12-17T23:21:38;5.73;;;4.33;;
52072;SDS011;38074;51.232;6.826;2022-12-17T23:28:55;5.83;;;4.20;;
52072;SDS011;38074;51.232;6.826;2022-12-17T23:36:17;5.90;;;4.22;;
52072;SDS011;38074;51.232;6.826;2022-12-17T23:43:34;6.25;;;4.15;;
52072;SDS011;38074;51.232;6.826;2022-12-17T23:50:50;5.60;;;4.22;;
52072;SDS011;38074;51.232;6.826;2022-12-17T23:58:05;7.13;;;4.07;;
